Time;durP1;ratioP1;P1;durP2;ratioP2;P2;SDS_P1;SDS_P2;PMS_P1;PMS_P2;Temp;Humidity;BMP_temperature;BMP_pressure;BME280_temperature;BME280_humidity;BME280_pressure;Samples;Min_cycle;Max_cycle;Signal;HPM_P1;HPM_P2
2024/02/11 00:02:11;;;;;;;8.02;5.65;;;6.30;99.90;;;;;;5020729;28;20041;-41
2024/02/11 00:04:37;;;;;;;7.65;5.18;;;6.40;99.90;;;;;;5019591;28;20396;-41
2024/02/11 00:07:03;;;;;;;9.95;6.95;;;6.40;99.90;;;;;;5019973;28;20060;-40
2024/02/11 00:09:28;;;;;;;10.05;5.43;;;6.40;99.90;;;;;;5022411;28;20026;-40
2024/02/11 00:11:56;;;;;;;9.50;7.15;;;6.50;99.90;;;;;;5022113;28;20064;-34
2024/02/11 00:14:22;;;;;;;11.10;7.20;;;6.60;99.90;;;;;;5022778;28;20083;-34
2024/02/11 00:16:48;;;;;;;13.57;7.93;;;6.60;99.90;;;;;;5020566;28;20567;-36
2024/02/11 00:19:13;;;;;;;10.60;5.95;;;6.70;99.90;;;;;;5023724;28;20033;-34
2024/02/11 00:21:39;;;;;;;12.48;8.13;;;6.70;99.90;;;;;;5024911;28;20028;-35
2024/02/11 00:24:06;;;;;;;14.32;8.15;;;6.70;99.90;;;;;;5021946;28;20517;-34
2024/02/11 00:26:31;;;;;;;11.18;7.78;;;6.80;99.90;;;;;;5023610;28;20033;-35
2024/02/11 00:28:57;;;;;;;9.45;6.88;;;6.80;99.90;;;;;;5009243;28;20391;-35
2024/02/11 00:31:25;;;;;;;9.85;7.25;;;6.80;99.90;;;;;;5022735;28;20502;-34
2024/02/11 00:33:51;;;;;;;10.97;8.33;;;6.80;99.90;;;;;;5025577;28;20609;-36
2024/02/11 00:36:17;;;;;;;11.57;8.90;;;6.80;99.90;;;;;;5022933;28;20056;-35
2024/02/11 00:38:42;;;;;;;11.77;9.13;;;6.80;99.90;;;;;;5022181;28;20108;-34
2024/02/11 00:41:09;;;;;;;14.77;8.23;;;6.80;99.90;;;;;;5020685;28;20557;-33
2024/02/11 00:43:37;;;;;;;11.57;8.35;;;6.80;99.90;;;;;;5024394;28;20030;-32
2024/02/11 00:46:04;;;;;;;;;;;6.80;99.90;;;;;;5020481;28;20395;-33
2024/02/11 00:48:29;;;;;;;55.33;25.52;;;6.90;99.90;;;;;;5021557;28;19944;-34
2024/02/11 00:50:55;;;;;;;16.00;10.60;;;6.80;99.90;;;;;;5019664;28;20582;-35
2024/02/11 00:53:21;;;;;;;20.20;17.00;;;6.90;99.90;;;;;;5023765;28;20029;-34
2024/02/11 00:55:47;;;;;;;16.05;12.32;;;6.90;99.90;;;;;;5008756;28;20047;-33
2024/02/11 00:58:14;;;;;;;10.10;7.00;;;6.90;99.90;;;;;;5039399;28;20339;-33
2024/02/11 01:00:44;;;;;;;14.48;9.52;;;6.90;99.90;;;;;;5024741;28;20112;-35
2024/02/11 01:03:13;;;;;;;10.98;7.53;;;6.90;99.90;;;;;;5024913;28;20783;-34
2024/02/11 01:05:45;;;;;;;9.38;6.35;;;6.90;99.90;;;;;;5021906;28;20039;-35
2024/02/11 01:08:11;;;;;;;15.18;8.25;;;6.90;99.90;;;;;;5022043;28;20037;-36
2024/02/11 01:10:38;;;;;;;7.97;5.35;;;6.90;99.90;;;;;;5024044;28;20116;-34
2024/02/11 01:13:04;;;;;;;9.35;6.78;;;6.90;99.90;;;;;;5024291;28;20607;-35
2024/02/11 01:15:30;;;;;;;12.40;8.10;;;7.00;99.90;;;;;;5021632;28;20032;-35
2024/02/11 01:17:56;;;;;;;13.57;8.38;;;7.00;99.90;;;;;;5021649;28;20384;-37
2024/02/11 01:20:21;;;;;;;10.45;8.07;;;7.00;99.90;;;;;;5023085;28;20383;-35
2024/02/11 01:22:54;;;;;;;13.85;7.15;;;7.00;99.90;;;;;;5023737;28;20041;-35
2024/02/11 01:25:20;;;;;;;12.52;7.45;;;7.10;99.90;;;;;;5006473;28;20052;-32
2024/02/11 01:27:49;;;;;;;12.48;8.05;;;7.10;99.90;;;;;;5024106;28;20191;-33
2024/02/11 01:30:17;;;;;;;9.93;6.93;;;7.10;99.90;;;;;;5022735;28;20025;-34
2024/02/11 01:32:43;;;;;;;11.93;7.78;;;7.10;99.90;;;;;;5005541;28;20103;-33
2024/02/11 01:35:12;;;;;;;11.52;7.95;;;7.10;99.90;;;;;;5004615;28;20087;-35
2024/02/11 01:37:41;;;;;;;11.48;7.90;;;7.10;99.90;;;;;;5024199;28;20013;-33
2024/02/11 01:40:21;;;;;;;12.63;7.82;;;7.20;99.90;;;;;;5007211;28;20423;-33
2024/02/11 01:42:48;;;;;;;9.02;7.07;;;7.10;99.90;;;;;;5005926;28;20060;-34
2024/02/11 01:45:17;;;;;;;11.55;7.35;;;7.20;99.90;;;;;;5006170;28;20471;-36
2024/02/11 01:47:45;;;;;;;9.30;7.00;;;7.20;99.90;;;;;;5007764;28;20025;-32
2024/02/11 01:50:20;;;;;;;11.47;8.20;;;7.20;99.90;;;;;;5004953;28;20022;-32
2024/02/11 01:52:48;;;;;;;10.52;6.93;;;7.20;99.90;;;;;;5018871;28;20036;-32
2024/02/11 01:55:18;;;;;;;10.63;7.43;;;7.30;99.90;;;;;;5005830;28;20029;-34
2024/02/11 01:57:47;;;;;;;10.32;7.18;;;7.30;99.90;;;;;;5009425;28;20120;-33
2024/02/11 02:00:13;;;;;;;12.27;7.57;;;7.20;99.90;;;;;;5004908;28;20033;-31
2024/02/11 02:02:41;;;;;;;10.80;8.00;;;7.20;99.90;;;;;;4992284;28;20041;-31
2024/02/11 02:05:08;;;;;;;13.05;8.55;;;7.20;99.90;;;;;;5005447;28;20407;-32
2024/02/11 02:07:35;;;;;;;11.30;7.32;;;7.20;99.90;;;;;;5022603;28;20095;-31
2024/02/11 02:10:03;;;;;;;11.48;7.55;;;7.20;99.90;;;;;;5022358;28;20080;-32
2024/02/11 02:12:33;;;;;;;12.02;7.57;;;7.20;99.90;;;;;;5019206;28;20022;-33
2024/02/11 02:15:00;;;;;;;9.93;7.35;;;7.30;99.90;;;;;;4995180;28;20037;-32
2024/02/11 02:17:44;;;;;;;10.40;7.28;;;7.30;99.90;;;;;;5019777;28;20029;-34
2024/02/11 02:20:11;;;;;;;9.50;7.30;;;7.30;99.90;;;;;;4998710;28;20032;-33
2024/02/11 02:22:37;;;;;;;10.55;7.20;;;7.30;99.90;;;;;;5004821;28;20440;-36
2024/02/11 02:25:04;;;;;;;11.68;7.45;;;7.40;99.90;;;;;;5023715;28;20116;-34
2024/02/11 02:27:30;;;;;;;10.27;7.65;;;7.30;99.90;;;;;;5005025;28;20030;-32
2024/02/11 02:29:57;;;;;;;12.02;7.40;;;7.30;99.90;;;;;;5021927;28;20021;-34
2024/02/11 02:32:23;;;;;;;10.68;7.68;;;7.40;99.90;;;;;;5002812;28;20044;-33
2024/02/11 02:34:55;;;;;;;11.95;7.68;;;7.40;99.90;;;;;;5006594;28;20088;-33
2024/02/11 02:37:22;;;;;;;11.88;8.07;;;7.40;99.90;;;;;;5039476;28;20069;-34
2024/02/11 02:39:49;;;;;;;13.38;8.05;;;7.40;99.90;;;;;;5019514;28;20076;-32
2024/02/11 02:42:20;;;;;;;13.48;8.20;;;7.40;99.90;;;;;;5014636;28;20440;-32
2024/02/11 02:44:46;;;;;;;13.88;8.45;;;7.40;99.90;;;;;;5012798;28;20055;-34
2024/02/11 02:47:13;;;;;;;12.32;8.35;;;7.40;99.90;;;;;;5011659;28;20048;-34
2024/02/11 02:49:42;;;;;;;12.93;8.10;;;7.40;99.90;;;;;;5010039;28;20372;-32
2024/02/11 02:52:10;;;;;;;13.52;8.18;;;7.40;99.90;;;;;;5004576;28;20390;-33
2024/02/11 02:54:43;;;;;;;12.90;8.25;;;7.40;99.90;;;;;;5005466;28;20026;-34
2024/02/11 02:57:13;;;;;;;11.57;8.23;;;7.50;99.90;;;;;;5008554;28;20034;-32
2024/02/11 02:59:40;;;;;;;11.52;7.18;;;7.40;99.90;;;;;;5012111;28;20124;-32
2024/02/11 03:02:07;;;;;;;9.88;7.20;;;7.50;99.90;;;;;;5007360;28;20038;-32
2024/02/11 03:04:37;;;;;;;10.75;7.55;;;7.50;99.90;;;;;;5020217;28;20029;-32
2024/02/11 03:07:06;;;;;;;11.98;7.60;;;7.50;99.90;;;;;;5006794;28;20022;-33
2024/02/11 03:09:33;;;;;;;11.98;7.55;;;7.60;99.90;;;;;;5016826;28;20033;-33
2024/02/11 03:12:02;;;;;;;12.45;8.07;;;7.60;99.90;;;;;;5006763;28;20029;-34
2024/02/11 03:14:36;;;;;;;14.13;7.72;;;7.60;99.90;;;;;;5004289;28;20557;-32
2024/02/11 03:17:02;;;;;;;13.02;8.52;;;7.70;99.90;;;;;;5007991;28;20117;-31
2024/02/11 03:19:28;;;;;;;10.90;7.05;;;7.70;99.90;;;;;;4996000;28;20036;-32
2024/02/11 03:21:53;;;;;;;14.15;8.43;;;7.70;99.90;;;;;;5006374;28;20022;-33
2024/02/11 03:24:19;;;;;;;13.95;8.35;;;7.70;99.90;;;;;;5010226;28;20124;-33
2024/02/11 03:26:45;;;;;;;14.50;8.50;;;7.70;99.90;;;;;;5017561;28;20309;-35
2024/02/11 03:29:11;;;;;;;13.65;8.60;;;7.70;99.90;;;;;;5018273;28;20041;-36
2024/02/11 03:31:37;;;;;;;13.43;7.82;;;7.70;99.90;;;;;;5023565;28;20398;-33
2024/02/11 03:34:04;;;;;;;16.08;9.15;;;7.80;99.90;;;;;;5020934;28;20476;-32
2024/02/11 03:36:31;;;;;;;5.28;4.32;;;7.80;99.90;;;;;;5007762;28;20033;-32
2024/02/11 03:38:57;;;;;;;14.90;8.70;;;7.90;99.90;;;;;;5009482;28;20514;-32
2024/02/11 03:41:24;;;;;;;15.45;8.60;;;7.80;99.90;;;;;;5022984;28;20014;-38
2024/02/11 03:43:50;;;;;;;13.05;8.35;;;7.80;99.90;;;;;;5019133;28;20025;-41
2024/02/11 03:46:17;;;;;;;6.63;4.80;;;7.80;99.90;;;;;;5011371;28;20030;-41
2024/02/11 03:48:43;;;;;;;13.55;8.02;;;7.90;99.90;;;;;;4994951;28;20102;-42
2024/02/11 03:51:12;;;;;;;16.85;8.45;;;7.90;99.90;;;;;;5003581;28;20515;-42
2024/02/11 03:53:39;;;;;;;14.15;8.70;;;7.90;99.90;;;;;;5010784;28;20017;-40
2024/02/11 03:56:08;;;;;;;13.10;9.07;;;7.90;99.90;;;;;;5005972;28;20040;-40
2024/02/11 03:58:41;;;;;;;14.32;9.18;;;7.90;99.90;;;;;;5027277;28;20025;-42
2024/02/11 04:01:07;;;;;;;15.27;9.20;;;7.90;99.90;;;;;;5000669;28;20045;-39
2024/02/11 04:03:40;;;;;;;14.02;9.48;;;7.90;99.90;;;;;;5022497;28;20075;-42
2024/02/11 04:06:06;;;;;;;15.77;9.85;;;7.90;99.90;;;;;;5021279;28;20707;-41
2024/02/11 04:08:34;;;;;;;10.20;7.80;;;8.00;99.90;;;;;;5004519;28;20108;-43
2024/02/11 04:11:01;;;;;;;13.10;8.27;;;8.00;99.90;;;;;;5002410;28;20029;-42
2024/02/11 04:13:27;;;;;;;6.10;3.95;;;8.00;99.90;;;;;;5024416;28;20028;-42
2024/02/11 04:15:56;;;;;;;14.50;9.13;;;8.00;99.90;;;;;;5011886;28;20108;-38
2024/02/11 04:18:29;;;;;;;14.30;8.82;;;8.00;99.90;;;;;;5021943;28;20265;-40
2024/02/11 04:20:55;;;;;;;14.23;9.57;;;8.00;99.90;;;;;;5003503;28;20032;-35
2024/02/11 04:23:24;;;;;;;15.20;7.53;;;8.00;99.90;;;;;;5034550;28;20041;-41
2024/02/11 04:25:52;;;;;;;15.82;10.02;;;8.00;99.90;;;;;;5009856;28;20160;-43
2024/02/11 04:28:20;;;;;;;17.15;9.95;;;8.00;99.90;;;;;;5006248;28;20037;-38
2024/02/11 04:30:46;;;;;;;10.75;6.72;;;8.10;99.90;;;;;;5017523;28;20091;-41
2024/02/11 04:33:20;;;;;;;6.70;4.65;;;8.00;99.90;;;;;;5002865;28;20037;-42
2024/02/11 04:35:47;;;;;;;2.13;1.40;;;7.80;99.90;;;;;;5021364;28;20033;-41
2024/02/11 04:38:13;;;;;;;1.63;1.52;;;7.50;99.90;;;;;;5001321;28;20037;-41
2024/02/11 04:40:39;;;;;;;1.15;1.10;;;7.40;99.90;;;;;;4996061;28;20034;-42
2024/02/11 04:43:09;;;;;;;0.80;0.80;;;7.20;99.90;;;;;;5019822;28;20095;-42
2024/02/11 04:45:37;;;;;;;1.00;1.00;;;7.10;99.90;;;;;;5008824;28;20072;-42
2024/02/11 04:48:04;;;;;;;1.00;1.00;;;7.10;99.90;;;;;;5011622;28;20040;-42
2024/02/11 04:50:31;;;;;;;0.80;0.80;;;7.00;99.90;;;;;;5019203;28;20032;-35
2024/02/11 04:53:01;;;;;;;0.68;0.68;;;7.00;99.90;;;;;;5003736;28;20028;-34
2024/02/11 04:55:43;;;;;;;0.70;0.70;;;6.90;99.90;;;;;;5026165;28;20026;-34
2024/02/11 04:58:14;;;;;;;0.70;0.70;;;6.70;99.90;;;;;;5018058;28;20056;-33
2024/02/11 05:00:40;;;;;;;0.80;0.80;;;6.60;99.90;;;;;;5020395;28;20034;-36
2024/02/11 05:03:07;;;;;;;0.80;0.80;;;6.50;99.90;;;;;;4993020;28;20407;-36
2024/02/11 05:05:36;;;;;;;0.70;0.70;;;6.50;99.90;;;;;;5009028;28;20108;-35
2024/02/11 05:08:04;;;;;;;0.70;0.70;;;6.40;99.90;;;;;;5009720;28;20030;-35
2024/02/11 05:10:33;;;;;;;0.70;0.70;;;6.30;99.90;;;;;;5025654;28;20479;-36
2024/02/11 05:13:04;;;;;;;0.77;0.77;;;6.30;99.90;;;;;;4992819;28;20032;-33
2024/02/11 05:15:33;;;;;;;0.43;0.43;;;6.20;99.90;;;;;;4994459;28;20103;-33
2024/02/11 05:18:00;;;;;;;0.80;0.80;;;6.10;99.90;;;;;;5017887;28;20026;-34
2024/02/11 05:20:28;;;;;;;1.20;1.10;;;6.00;99.90;;;;;;5025100;28;20129;-33
2024/02/11 05:22:57;;;;;;;0.77;0.77;;;6.00;99.90;;;;;;5004907;28;20037;-34
2024/02/11 05:25:26;;;;;;;0.70;0.70;;;6.00;99.90;;;;;;5003811;28;20475;-31
2024/02/11 05:27:55;;;;;;;1.20;1.20;;;5.90;99.90;;;;;;4996931;28;20030;-34
2024/02/11 05:30:24;;;;;;;;;;;5.90;99.90;;;;;;5002863;28;20037;-35
2024/02/11 05:32:54;;;;;;;0.95;0.90;;;5.90;99.90;;;;;;5016564;28;19905;-35
2024/02/11 05:35:23;;;;;;;1.10;1.10;;;5.80;99.90;;;;;;5021697;28;20054;-33
2024/02/11 05:37:58;;;;;;;1.27;1.20;;;5.80;99.90;;;;;;5022834;28;20056;-33
2024/02/11 05:40:26;;;;;;;1.42;1.33;;;5.80;99.90;;;;;;5019586;28;20080;-32
2024/02/11 05:42:51;;;;;;;1.50;1.40;;;5.70;99.90;;;;;;5017643;28;20395;-38
2024/02/11 05:45:17;;;;;;;0.90;0.90;;;5.70;99.90;;;;;;5004460;28;20022;-32
2024/02/11 05:47:43;;;;;;;1.50;1.40;;;5.60;99.90;;;;;;5027291;28;20475;-34
2024/02/11 05:50:10;;;;;;;1.50;1.40;;;5.50;99.90;;;;;;5013555;28;20029;-34
2024/02/11 05:52:36;;;;;;;1.25;1.17;;;5.50;99.90;;;;;;5018193;28;20037;-34
2024/02/11 05:55:02;;;;;;;1.60;1.50;;;5.40;99.90;;;;;;5015174;28;20384;-34
2024/02/11 05:57:30;;;;;;;1.48;1.40;;;5.40;99.90;;;;;;5040957;28;20053;-32
2024/02/11 05:59:57;;;;;;;1.63;1.52;;;5.30;99.90;;;;;;5011137;28;20033;-34
2024/02/11 06:02:22;;;;;;;2.10;2.00;;;5.30;99.90;;;;;;4998592;28;20038;-33
2024/02/11 06:04:49;;;;;;;2.72;2.53;;;5.30;99.90;;;;;;5021243;28;20044;-33
2024/02/11 06:07:15;;;;;;;2.10;2.00;;;5.20;99.90;;;;;;5031162;28;20036;-34
2024/02/11 06:09:41;;;;;;;1.52;1.42;;;5.20;99.90;;;;;;5036128;28;20495;-33
2024/02/11 06:12:07;;;;;;;2.67;2.47;;;5.10;99.90;;;;;;5020975;28;20040;-32
2024/02/11 06:14:33;;;;;;;1.88;1.77;;;5.10;99.90;;;;;;5016207;28;20034;-32
2024/02/11 06:17:00;;;;;;;1.90;1.80;;;5.10;99.90;;;;;;4997473;28;20025;-38
2024/02/11 06:19:25;;;;;;;2.25;2.15;;;5.10;99.90;;;;;;5017729;28;20045;-33
2024/02/11 06:21:51;;;;;;;1.90;1.80;;;5.10;99.90;;;;;;4993101;28;20475;-37
2024/02/11 06:24:17;;;;;;;1.88;1.77;;;5.00;99.90;;;;;;5012501;28;20026;-33
2024/02/11 06:26:43;;;;;;;1.35;1.35;;;4.90;99.90;;;;;;5013866;28;20703;-37
2024/02/11 06:29:09;;;;;;;2.33;2.20;;;5.00;99.90;;;;;;4998222;28;20025;-32
2024/02/11 06:31:35;;;;;;;2.20;2.10;;;4.90;99.90;;;;;;5036201;28;20638;-34
2024/02/11 06:34:01;;;;;;;1.83;1.73;;;4.80;99.90;;;;;;5022391;28;20128;-32
2024/02/11 06:36:27;;;;;;;2.08;1.98;;;5.00;99.90;;;;;;5023690;28;20166;-34
2024/02/11 06:38:58;;;;;;;1.92;1.83;;;4.90;99.90;;;;;;5018971;28;20084;-39
2024/02/11 06:41:24;;;;;;;1.52;1.50;;;4.90;99.90;;;;;;5013394;28;20535;-36
2024/02/11 06:43:50;;;;;;;1.90;1.80;;;4.80;99.90;;;;;;5037712;28;20026;-35
2024/02/11 06:46:16;;;;;;;1.70;1.60;;;4.70;99.90;;;;;;5022527;28;20068;-33
2024/02/11 06:48:43;;;;;;;1.50;1.48;;;4.80;99.90;;;;;;5005204;28;20078;-33
2024/02/11 06:51:09;;;;;;;1.42;1.40;;;4.70;99.90;;;;;;5018210;28;20022;-33
2024/02/11 06:53:36;;;;;;;1.75;1.65;;;4.70;99.90;;;;;;5005849;28;20033;-37
2024/02/11 06:56:02;;;;;;;1.58;1.58;;;4.70;99.90;;;;;;5017814;28;20025;-33
2024/02/11 06:58:27;;;;;;;1.35;1.15;;;4.60;99.90;;;;;;5027492;28;20029;-32
2024/02/11 07:00:53;;;;;;;1.20;1.20;;;4.60;99.90;;;;;;5019671;28;20040;-34
2024/02/11 07:03:19;;;;;;;0.80;0.80;;;4.50;99.90;;;;;;5020286;28;20032;-33
2024/02/11 07:05:46;;;;;;;1.70;1.25;;;4.60;99.90;;;;;;5044424;28;20466;-33
2024/02/11 07:08:12;;;;;;;1.27;1.27;;;4.50;99.90;;;;;;5018701;28;20029;-32
2024/02/11 07:10:39;;;;;;;2.05;1.40;;;4.50;99.90;;;;;;5015486;28;20051;-32
2024/02/11 07:13:06;;;;;;;1.17;1.17;;;4.40;99.90;;;;;;5005032;28;20029;-34
2024/02/11 07:15:33;;;;;;;1.48;1.48;;;4.40;99.90;;;;;;5007038;28;20030;-33
2024/02/11 07:17:59;;;;;;;1.40;1.40;;;4.40;99.90;;;;;;5009106;28;20182;-33
2024/02/11 07:20:25;;;;;;;1.30;1.30;;;4.40;99.90;;;;;;5013157;28;20057;-35
2024/02/11 07:22:52;;;;;;;1.30;1.30;;;4.40;99.90;;;;;;5023324;28;20034;-34
2024/02/11 07:25:20;;;;;;;1.17;1.17;;;4.40;99.90;;;;;;5026203;28;20028;-33
2024/02/11 07:27:46;;;;;;;1.90;1.80;;;4.40;99.90;;;;;;5023333;28;20038;-33
2024/02/11 07:30:14;;;;;;;1.65;1.60;;;4.30;99.90;;;;;;5012219;28;20112;-34
2024/02/11 07:32:42;;;;;;;1.90;1.80;;;4.40;99.90;;;;;;5022522;28;20037;-33
2024/02/11 07:35:08;;;;;;;1.30;1.30;;;4.40;99.90;;;;;;5028112;28;20049;-32
2024/02/11 07:37:34;;;;;;;1.60;1.60;;;4.40;99.90;;;;;;5012623;28;20033;-32
2024/02/11 07:39:59;;;;;;;1.33;1.33;;;4.40;99.90;;;;;;5013156;28;20029;-33
2024/02/11 07:42:26;;;;;;;2.17;1.52;;;4.40;99.90;;;;;;5012072;28;20215;-33
2024/02/11 07:44:51;;;;;;;1.60;1.50;;;4.40;99.90;;;;;;5048681;28;20043;-36
2024/02/11 07:47:18;;;;;;;1.00;1.00;;;4.30;99.90;;;;;;5011415;28;20492;-36
2024/02/11 07:49:44;;;;;;;5.05;1.35;;;4.40;99.90;;;;;;5014834;28;20052;-35
2024/02/11 07:52:10;;;;;;;1.30;1.30;;;4.40;99.90;;;;;;5021627;28;20380;-33
2024/02/11 07:54:36;;;;;;;0.90;0.90;;;4.40;99.90;;;;;;5024997;28;20022;-37
2024/02/11 07:57:03;;;;;;;0.88;0.88;;;4.40;99.90;;;;;;5038113;28;20492;-34
2024/02/11 07:59:30;;;;;;;1.30;1.30;;;4.50;99.90;;;;;;5029542;28;20112;-33
2024/02/11 08:01:56;;;;;;;1.83;1.73;;;4.40;99.90;;;;;;5001705;28;20052;-35
2024/02/11 08:04:21;;;;;;;1.70;1.60;;;4.50;99.90;;;;;;5029293;28;20112;-32
2024/02/11 08:06:47;;;;;;;1.10;1.10;;;4.50;99.90;;;;;;5019919;28;20029;-34
2024/02/11 08:09:14;;;;;;;1.30;1.30;;;4.50;99.90;;;;;;5046172;28;20557;-32
2024/02/11 08:11:44;;;;;;;1.42;1.42;;;4.60;99.90;;;;;;5022199;28;20495;-33
2024/02/11 08:14:10;;;;;;;1.35;1.35;;;4.50;99.90;;;;;;5031981;28;20399;-32
2024/02/11 08:16:36;;;;;;;1.40;1.30;;;4.60;99.90;;;;;;5010273;28;20026;-35
2024/02/11 08:19:08;;;;;;;1.20;1.20;;;4.60;99.90;;;;;;5028590;28;20021;-32
2024/02/11 08:21:35;;;;;;;1.48;1.40;;;4.60;99.90;;;;;;5036923;28;20022;-32
2024/02/11 08:24:02;;;;;;;1.58;1.48;;;4.70;99.90;;;;;;5000332;28;20025;-32
2024/02/11 08:26:28;;;;;;;1.42;1.33;;;4.70;99.90;;;;;;5022529;28;20313;-32
2024/02/11 08:28:59;;;;;;;2.47;1.60;;;4.70;99.90;;;;;;5034648;28;20044;-37
2024/02/11 08:31:25;;;;;;;1.40;1.40;;;4.70;99.90;;;;;;5010767;28;20065;-32
2024/02/11 08:33:51;;;;;;;2.00;1.80;;;4.70;99.90;;;;;;5043494;28;20138;-35
2024/02/11 08:36:17;;;;;;;1.67;1.58;;;4.80;99.90;;;;;;5021079;28;20037;-34
2024/02/11 08:38:42;;;;;;;1.10;1.10;;;4.80;99.90;;;;;;5029701;28;20505;-36
2024/02/11 08:41:09;;;;;;;1.35;1.35;;;4.80;99.90;;;;;;5019495;28;20123;-32
2024/02/11 08:43:35;;;;;;;1.60;1.10;;;4.80;99.90;;;;;;5024787;28;20021;-34
2024/02/11 08:46:03;;;;;;;1.75;1.65;;;4.80;99.90;;;;;;5023852;28;20412;-31
2024/02/11 08:48:31;;;;;;;;;;;4.90;99.90;;;;;;5037184;28;20037;-32
2024/02/11 08:50:57;;;;;;;2.10;2.00;;;4.90;99.90;;;;;;5004981;28;19913;-32
2024/02/11 08:53:23;;;;;;;2.28;2.08;;;5.00;99.90;;;;;;5041116;28;20026;-31
2024/02/11 08:55:49;;;;;;;1.75;1.65;;;5.00;99.90;;;;;;5010194;28;20022;-35
2024/02/11 08:58:17;;;;;;;2.10;1.90;;;5.00;99.90;;;;;;5030643;28;20041;-32
2024/02/11 09:00:43;;;;;;;1.88;1.73;;;5.10;99.90;;;;;;5010626;28;20032;-33
2024/02/11 09:03:09;;;;;;;2.53;2.33;;;5.00;99.90;;;;;;5031675;28;20104;-32
2024/02/11 09:05:35;;;;;;;1.23;1.15;;;5.10;99.90;;;;;;5030370;28;20139;-32
2024/02/11 09:08:01;;;;;;;2.25;2.05;;;5.10;99.90;;;;;;5026742;28;20614;-33
2024/02/11 09:10:27;;;;;;;2.00;1.90;;;5.20;99.90;;;;;;5036425;28;20040;-32
2024/02/11 09:12:53;;;;;;;2.45;2.08;;;5.20;99.90;;;;;;5036502;28;20030;-35
2024/02/11 09:15:20;;;;;;;1.80;1.70;;;5.20;99.90;;;;;;5020931;28;20691;-34
2024/02/11 09:17:46;;;;;;;2.63;2.42;;;5.30;99.90;;;;;;5028471;28;20479;-32
2024/02/11 09:20:13;;;;;;;2.22;2.13;;;5.30;99.90;;;;;;5012876;28;20036;-32
2024/02/11 09:22:42;;;;;;;1.90;1.80;;;5.30;99.90;;;;;;5019857;28;20029;-33
2024/02/11 09:25:11;;;;;;;1.80;1.70;;;5.40;99.90;;;;;;5011210;28;20121;-33
2024/02/11 09:27:38;;;;;;;2.47;2.13;;;5.40;99.90;;;;;;5024778;28;20124;-36
2024/02/11 09:30:15;;;;;;;2.78;2.55;;;5.50;99.90;;;;;;5006995;28;20026;-32
2024/02/11 09:32:41;;;;;;;3.17;2.78;;;5.60;99.90;;;;;;5024491;28;20037;-40
2024/02/11 09:35:07;;;;;;;1.88;1.77;;;5.60;99.90;;;;;;5028172;28;20041;-38
2024/02/11 09:37:33;;;;;;;3.25;2.85;;;5.60;99.90;;;;;;5004988;28;20916;-38
2024/02/11 09:39:59;;;;;;;1.70;1.60;;;5.60;99.90;;;;;;5032170;28;20039;-38
2024/02/11 09:42:25;;;;;;;2.35;2.20;;;5.70;99.90;;;;;;5021407;28;20034;-39
2024/02/11 09:44:53;;;;;;;2.85;2.65;;;5.70;99.90;;;;;;5024230;28;20033;-39
2024/02/11 09:47:21;;;;;;;2.30;2.20;;;5.80;99.90;;;;;;5022331;28;20030;-40
2024/02/11 09:49:50;;;;;;;3.42;2.47;;;5.90;99.90;;;;;;5005866;28;20689;-40
2024/02/11 09:52:19;;;;;;;3.63;3.03;;;6.00;99.90;;;;;;5037126;28;20502;-39
2024/02/11 09:54:46;;;;;;;2.85;2.38;;;6.10;99.90;;;;;;5024451;28;20459;-38
2024/02/11 09:57:12;;;;;;;1.88;1.77;;;6.00;99.90;;;;;;5020695;28;20674;-40
2024/02/11 09:59:39;;;;;;;4.43;2.75;;;6.20;99.90;;;;;;5014693;28;20402;-40
2024/02/11 10:02:14;;;;;;;3.40;2.25;;;6.20;99.90;;;;;;5018949;28;20045;-40
2024/02/11 10:04:42;;;;;;;2.67;2.45;;;6.30;99.90;;;;;;5006882;28;20032;-41
2024/02/11 10:07:23;;;;;;;3.50;3.20;;;6.30;99.90;;;;;;5022553;28;20137;-38
2024/02/11 10:09:50;;;;;;;2.50;2.30;;;6.30;99.90;;;;;;5005024;28;20033;-40
2024/02/11 10:12:18;;;;;;;3.22;2.97;;;6.30;99.90;;;;;;5027863;28;20107;-37
2024/02/11 10:14:54;;;;;;;;;;;6.40;99.90;;;;;;5001193;28;20030;-39
2024/02/11 10:17:21;;;;;;;4.70;2.50;;;6.30;99.90;;;;;;5012015;28;19908;-40
2024/02/11 10:19:48;;;;;;;2.67;2.45;;;6.50;99.90;;;;;;5028959;28;20068;-40
2024/02/11 10:22:14;;;;;;;3.88;3.03;;;6.50;99.90;;;;;;5007769;28;20033;-41
2024/02/11 10:24:39;;;;;;;2.90;2.67;;;6.50;99.90;;;;;;5026054;28;20029;-38
2024/02/11 10:27:05;;;;;;;3.50;3.00;;;6.60;99.90;;;;;;5022325;28;20083;-40
2024/02/11 10:29:32;;;;;;;6.82;4.07;;;6.70;99.90;;;;;;5020341;28;20116;-40
2024/02/11 10:31:57;;;;;;;5.35;4.20;;;6.70;99.90;;;;;;5011910;28;20384;-40
2024/02/11 10:34:23;;;;;;;4.78;3.42;;;6.60;99.90;;;;;;5022340;28;20037;-38
2024/02/11 10:36:49;;;;;;;3.85;2.65;;;6.60;99.90;;;;;;5028731;28;20080;-41
2024/02/11 10:39:15;;;;;;;3.67;2.83;;;6.80;99.90;;;;;;5020957;28;20030;-39
2024/02/11 10:41:41;;;;;;;3.15;2.85;;;6.80;99.90;;;;;;5019865;28;20025;-37
2024/02/11 10:44:08;;;;;;;5.03;3.47;;;6.80;99.90;;;;;;5019190;28;20036;-39
2024/02/11 10:46:35;;;;;;;3.38;3.08;;;6.70;99.90;;;;;;5022175;28;20505;-40
2024/02/11 10:49:01;;;;;;;6.20;4.97;;;6.70;99.90;;;;;;5020938;28;20047;-39
2024/02/11 10:51:32;;;;;;;4.45;3.28;;;6.70;99.90;;;;;;5024602;28;20018;-39
2024/02/11 10:54:01;;;;;;;3.85;3.50;;;6.70;99.90;;;;;;5008601;28;20025;-40
2024/02/11 10:56:30;;;;;;;4.65;4.25;;;6.70;99.90;;;;;;5025370;28;20068;-41
2024/02/11 10:59:37;;;;;;;3.80;3.38;;;6.70;99.90;;;;;;5026100;28;20030;-36
2024/02/11 11:02:04;;;;;;;4.78;3.92;;;6.70;99.90;;;;;;5000756;28;20058;-41
2024/02/11 11:04:31;;;;;;;3.92;3.22;;;6.80;99.90;;;;;;5003758;28;20032;-42
2024/02/11 11:06:57;;;;;;;4.32;3.67;;;6.80;99.90;;;;;;4989446;28;20025;-39
2024/02/11 11:09:24;;;;;;;4.35;3.08;;;6.80;99.90;;;;;;5029511;28;20026;-40
2024/02/11 11:11:51;;;;;;;5.45;3.83;;;6.80;99.90;;;;;;5026683;28;20091;-41
2024/02/11 11:14:19;;;;;;;6.03;4.13;;;6.80;99.90;;;;;;5007390;28;20029;-41
2024/02/11 11:16:46;;;;;;;4.20;3.80;;;6.80;99.90;;;;;;4994917;28;20092;-40
2024/02/11 11:19:13;;;;;;;4.25;3.40;;;6.80;99.90;;;;;;5020671;28;20048;-39
2024/02/11 11:21:54;;;;;;;4.60;3.20;;;6.80;99.90;;;;;;5016113;28;20030;-39
2024/02/11 11:24:21;;;;;;;5.00;3.65;;;6.90;99.90;;;;;;5005917;28;20114;-38
2024/02/11 11:26:55;;;;;;;3.67;3.30;;;6.90;99.90;;;;;;5023593;28;20028;-42
2024/02/11 11:29:27;;;;;;;3.03;2.83;;;6.90;99.90;;;;;;5009889;28;20707;-42
2024/02/11 11:31:59;;;;;;;3.75;2.45;;;7.00;99.90;;;;;;5022988;28;20522;-41
2024/02/11 11:34:26;;;;;;;3.53;3.22;;;7.00;99.90;;;;;;5029393;28;20033;-38
2024/02/11 11:36:51;;;;;;;3.28;2.97;;;7.00;99.90;;;;;;5022153;28;20167;-37
2024/02/11 11:39:18;;;;;;;5.43;2.58;;;7.00;99.90;;;;;;5026533;28;20488;-41
2024/02/11 11:41:45;;;;;;;5.32;3.25;;;7.10;99.90;;;;;;5040456;28;20033;-38
2024/02/11 11:44:11;;;;;;;3.78;3.47;;;7.10;99.90;;;;;;5026955;28;20042;-42
2024/02/11 11:46:37;;;;;;;4.47;2.75;;;7.10;99.90;;;;;;5039880;28;20032;-41
2024/02/11 11:49:03;;;;;;;2.95;2.60;;;7.20;99.90;;;;;;5018587;28;20156;-41
2024/02/11 11:51:30;;;;;;;3.95;3.58;;;7.20;99.90;;;;;;5032289;28;20014;-33
2024/02/11 11:53:56;;;;;;;3.15;2.60;;;7.20;99.90;;;;;;5023284;28;20112;-37
2024/02/11 11:56:23;;;;;;;2.85;2.65;;;7.30;99.90;;;;;;5024909;28;20029;-31
2024/02/11 11:58:52;;;;;;;3.05;2.30;;;7.30;99.90;;;;;;5021678;28;20029;-34
2024/02/11 12:01:19;;;;;;;3.17;2.88;;;7.30;99.90;;;;;;5023490;28;20037;-33
2024/02/11 12:03:45;;;;;;;3.92;3.17;;;7.30;99.90;;;;;;5024911;28;20056;-32
2024/02/11 12:06:13;;;;;;;3.63;2.78;;;7.30;99.90;;;;;;5009596;28;20148;-34
2024/02/11 12:08:39;;;;;;;5.13;3.72;;;7.30;99.90;;;;;;5025070;28;20029;-32
2024/02/11 12:11:06;;;;;;;2.53;2.33;;;7.30;99.90;;;;;;5025825;28;20051;-35
2024/02/11 12:13:37;;;;;;;3.08;2.78;;;7.30;99.90;;;;;;5023450;28;20033;-32
2024/02/11 12:16:05;;;;;;;2.70;2.50;;;7.30;99.90;;;;;;5025168;28;20634;-32
2024/02/11 12:18:33;;;;;;;;;;;7.30;99.90;;;;;;5025830;28;20063;-33
2024/02/11 12:21:00;;;;;;;3.42;3.03;;;7.30;99.90;;;;;;5023619;28;20411;-34
2024/02/11 12:23:26;;;;;;;5.97;3.38;;;7.30;99.90;;;;;;5009157;28;20552;-34
2024/02/11 12:25:53;;;;;;;3.65;3.25;;;7.30;99.90;;;;;;5029600;28;20033;-38
2024/02/11 12:28:32;;;;;;;3.50;2.80;;;7.30;99.90;;;;;;5024543;28;20022;-32
2024/02/11 12:31:12;;;;;;;2.17;2.03;;;7.30;99.90;;;;;;5024143;28;20025;-32
2024/02/11 12:33:39;;;;;;;3.35;3.10;;;7.40;99.90;;;;;;5023548;28;20030;-33
2024/02/11 12:36:12;;;;;;;2.30;1.85;;;7.40;99.90;;;;;;5022378;28;20719;-34
2024/02/11 12:38:41;;;;;;;3.08;2.78;;;7.40;99.90;;;;;;5022462;28;20033;-34
2024/02/11 12:41:09;;;;;;;2.65;2.45;;;7.40;99.90;;;;;;5022654;28;20110;-32
2024/02/11 12:43:35;;;;;;;4.00;3.40;;;7.40;99.90;;;;;;5026714;28;20136;-36
2024/02/11 12:46:01;;;;;;;3.10;2.80;;;7.40;99.90;;;;;;5027247;28;20041;-33
2024/02/11 12:48:27;;;;;;;3.33;3.10;;;7.40;99.90;;;;;;5025916;28;20212;-37
2024/02/11 12:50:54;;;;;;;3.25;2.95;;;7.50;99.90;;;;;;5021774;28;20032;-36
2024/02/11 12:53:21;;;;;;;1.88;1.77;;;7.60;99.90;;;;;;5007515;28;20499;-32
2024/02/11 12:55:47;;;;;;;3.50;3.10;;;7.50;99.90;;;;;;5023913;28;20028;-32
2024/02/11 12:58:13;;;;;;;13.98;7.72;;;7.50;99.90;;;;;;5038793;28;20025;-35